Time;durP1;ratioP1;P1;durP2;ratioP2;P2;SDS_P1;SDS_P2;PMS_P1;PMS_P2;Temp;Humidity;BMP_temperature;BMP_pressure;BME280_temperature;BME280_humidity;BME280_pressure;Samples;Min_cycle;Max_cycle;Signal;HPM_P1;HPM_P2
2023/05/23 00:01:30;;;;;;;19.70;13.20;;;16.60;99.90;;;;;;5030468;28;20479;-73
2023/05/23 00:03:56;;;;;;;25.23;14.30;;;16.60;99.90;;;;;;5030539;28;20476;-73
2023/05/23 00:06:24;;;;;;;20.30;13.20;;;16.60;99.90;;;;;;5019178;28;20461;-73
2023/05/23 00:08:50;;;;;;;21.33;13.70;;;16.60;99.90;;;;;;5018777;28;20536;-73
2023/05/23 00:11:19;;;;;;;18.17;13.97;;;16.60;99.90;;;;;;5012779;28;20968;-73
2023/05/23 00:13:47;;;;;;;19.30;13.97;;;16.60;99.90;;;;;;5024598;28;20454;-73
2023/05/23 00:16:15;;;;;;;22.03;13.93;;;16.60;99.90;;;;;;5010581;28;20469;-73
2023/05/23 00:18:44;;;;;;;21.00;13.10;;;16.60;99.90;;;;;;5009905;28;20496;-73
2023/05/23 00:21:12;;;;;;;23.97;15.90;;;16.60;99.90;;;;;;5009966;28;20465;-73
2023/05/23 00:23:41;;;;;;;20.70;15.53;;;16.50;99.90;;;;;;5010406;28;20476;-73
2023/05/23 00:26:07;;;;;;;26.27;15.63;;;16.50;99.90;;;;;;5010240;28;20565;-73
2023/05/23 00:28:34;;;;;;;27.17;16.87;;;16.50;99.90;;;;;;5009995;28;20481;-73
2023/05/23 00:31:02;;;;;;;22.97;15.60;;;16.50;99.90;;;;;;5010133;28;20524;-73
2023/05/23 00:33:31;;;;;;;21.67;15.37;;;16.50;99.90;;;;;;5002547;28;20833;-73
2023/05/23 00:35:58;;;;;;;22.87;15.60;;;16.40;99.90;;;;;;5010388;28;20461;-73
2023/05/23 00:38:25;;;;;;;26.43;17.37;;;16.50;99.90;;;;;;5009614;28;20485;-73
2023/05/23 00:40:52;;;;;;;27.53;17.23;;;16.40;99.90;;;;;;5010217;28;20484;-73
2023/05/23 00:43:20;;;;;;;24.67;17.90;;;16.40;99.90;;;;;;5010227;28;20832;-73
2023/05/23 00:45:47;;;;;;;27.73;18.30;;;16.40;99.90;;;;;;5010266;28;20520;-73
2023/05/23 00:48:15;;;;;;;30.37;18.00;;;16.40;99.90;;;;;;5009605;28;20477;-73
2023/05/23 00:50:42;;;;;;;25.80;16.80;;;16.40;99.90;;;;;;5010359;28;20465;-73
2023/05/23 00:53:09;;;;;;;31.30;17.93;;;16.40;99.90;;;;;;5009937;28;20940;-73
2023/05/23 00:55:36;;;;;;;25.63;18.80;;;16.40;99.90;;;;;;5010200;28;20466;-73
2023/05/23 00:58:03;;;;;;;30.73;19.23;;;16.30;99.90;;;;;;5009803;28;20492;-73
2023/05/23 01:00:30;;;;;;;26.80;16.93;;;16.30;99.90;;;;;;5009741;28;20461;-73
2023/05/23 01:02:56;;;;;;;31.27;18.43;;;16.30;99.90;;;;;;5010028;28;20492;-73
2023/05/23 01:05:25;;;;;;;27.00;18.17;;;16.30;99.90;;;;;;5009965;28;20468;-73
2023/05/23 01:07:52;;;;;;;28.30;18.63;;;16.30;99.90;;;;;;5009776;28;20489;-73
2023/05/23 01:10:21;;;;;;;30.57;19.20;;;16.30;99.90;;;;;;5011120;28;20465;-73
2023/05/23 01:12:58;;;;;;;31.90;19.63;;;16.30;99.90;;;;;;5019609;28;20460;-73
2023/05/23 01:15:29;;;;;;;33.10;18.40;;;16.30;99.90;;;;;;5033396;28;20467;-73
2023/05/23 01:18:02;;;;;;;33.33;20.17;;;16.30;99.90;;;;;;5033077;28;20476;-73
2023/05/23 01:20:35;;;;;;;34.00;19.80;;;16.30;99.90;;;;;;5033169;28;20496;-73
2023/05/23 01:23:23;;;;;;;31.70;21.50;;;16.30;99.90;;;;;;5025855;28;20480;-73
2023/05/23 01:26:04;;;;;;;33.93;21.30;;;16.30;99.90;;;;;;5013722;28;20465;-72
2023/05/23 01:28:37;;;;;;;31.50;21.07;;;16.30;99.90;;;;;;5012888;28;20484;-73
2023/05/23 01:31:06;;;;;;;27.50;18.20;;;16.30;99.90;;;;;;5013292;28;20464;-73
2023/05/23 01:33:35;;;;;;;31.90;21.47;;;16.30;99.90;;;;;;5013256;28;20472;-73
2023/05/23 01:36:03;;;;;;;36.10;20.97;;;16.30;99.90;;;;;;5013126;28;20472;-72
2023/05/23 01:38:30;;;;;;;33.00;21.30;;;16.30;99.90;;;;;;5023914;28;20550;-73
2023/05/23 01:40:56;;;;;;;41.13;21.37;;;16.20;99.90;;;;;;5032913;28;20496;-73
2023/05/23 01:43:24;;;;;;;34.70;21.00;;;16.20;99.90;;;;;;5032951;28;20480;-73
2023/05/23 01:45:55;;;;;;;41.37;24.77;;;16.20;99.90;;;;;;5032850;28;20501;-73
2023/05/23 01:48:25;;;;;;;32.80;20.47;;;16.20;99.90;;;;;;5032219;28;20829;-73
2023/05/23 01:50:52;;;;;;;40.57;23.70;;;16.10;99.90;;;;;;5032656;28;20503;-73
2023/05/23 01:53:22;;;;;;;38.73;22.30;;;16.10;99.90;;;;;;5032655;28;20456;-73
2023/05/23 01:55:49;;;;;;;39.50;24.07;;;16.10;99.90;;;;;;5032794;28;20460;-73
2023/05/23 01:58:16;;;;;;;37.13;21.50;;;16.10;99.90;;;;;;5032089;28;20484;-73
2023/05/23 02:00:43;;;;;;;38.33;23.20;;;16.10;99.90;;;;;;5032369;28;20460;-72
2023/05/23 02:03:11;;;;;;;43.20;25.50;;;16.00;99.90;;;;;;5032274;28;20511;-73
2023/05/23 02:05:38;;;;;;;38.33;22.87;;;16.00;99.90;;;;;;5032457;28;20464;-73
2023/05/23 02:08:05;;;;;;;40.23;23.20;;;16.00;99.90;;;;;;5032022;28;20485;-73
2023/05/23 02:10:32;;;;;;;40.63;24.70;;;15.90;99.90;;;;;;5032068;28;20940;-72
2023/05/23 02:12:58;;;;;;;46.73;25.10;;;15.90;99.90;;;;;;5032294;28;20962;-72
2023/05/23 02:15:25;;;;;;;44.83;25.90;;;15.90;99.90;;;;;;5032320;28;20468;-73
2023/05/23 02:17:52;;;;;;;42.47;24.90;;;15.90;99.90;;;;;;5031935;28;20484;-72
2023/05/23 02:20:20;;;;;;;44.47;25.80;;;15.80;99.90;;;;;;5031924;28;20471;-72
2023/05/23 02:22:47;;;;;;;34.97;21.67;;;15.80;99.90;;;;;;5031295;28;20860;-72
2023/05/23 02:25:14;;;;;;;42.23;24.73;;;15.80;99.90;;;;;;5032156;28;20460;-73
2023/05/23 02:27:41;;;;;;;44.83;24.33;;;15.80;99.90;;;;;;5031984;28;20542;-73
2023/05/23 02:30:09;;;;;;;41.60;26.10;;;15.70;99.90;;;;;;5031605;28;20469;-73
2023/05/23 02:32:36;;;;;;;46.57;27.07;;;15.70;99.90;;;;;;5032220;28;20468;-73
2023/05/23 02:35:04;;;;;;;48.17;25.53;;;15.70;99.90;;;;;;5031879;28;20887;-72
2023/05/23 02:37:32;;;;;;;45.67;24.50;;;15.70;99.90;;;;;;5031706;28;20527;-72
2023/05/23 02:39:59;;;;;;;40.70;25.13;;;15.70;99.90;;;;;;5031328;28;20460;-72
2023/05/23 02:42:25;;;;;;;46.13;24.40;;;15.70;99.90;;;;;;5031785;28;20959;-72
2023/05/23 02:44:52;;;;;;;39.13;24.13;;;15.60;99.90;;;;;;5031677;28;20492;-73
2023/05/23 02:47:19;;;;;;;47.00;25.63;;;15.70;99.90;;;;;;5031680;28;20488;-72
2023/05/23 02:49:45;;;;;;;42.47;26.27;;;15.70;99.90;;;;;;5031216;28;20978;-73
2023/05/23 02:52:12;;;;;;;43.20;24.90;;;15.60;99.90;;;;;;5031607;28;20880;-72
2023/05/23 02:54:40;;;;;;;41.87;27.20;;;15.70;99.90;;;;;;5031761;28;20457;-72
2023/05/23 02:57:07;;;;;;;40.17;22.90;;;15.70;99.90;;;;;;5031404;28;20986;-72
2023/05/23 02:59:33;;;;;;;37.50;25.13;;;15.70;99.90;;;;;;5030896;28;20460;-72
2023/05/23 03:02:00;;;;;;;42.77;24.63;;;15.70;99.90;;;;;;5031401;28;20834;-72
2023/05/23 03:04:28;;;;;;;43.43;25.53;;;15.70;99.90;;;;;;5031223;28;20493;-72
2023/05/23 03:06:55;;;;;;;45.27;27.27;;;15.80;99.90;;;;;;5031323;28;20520;-72
2023/05/23 03:09:22;;;;;;;42.00;25.13;;;15.80;99.90;;;;;;5030988;28;20460;-73
2023/05/23 03:11:50;;;;;;;40.17;24.80;;;15.80;99.90;;;;;;5031273;28;20809;-73
2023/05/23 03:14:17;;;;;;;40.97;23.10;;;15.80;99.90;;;;;;5031096;28;20947;-73
2023/05/23 03:16:44;;;;;;;44.73;26.30;;;15.80;99.90;;;;;;5031232;28;20484;-73
2023/05/23 03:19:10;;;;;;;44.70;27.03;;;15.80;99.90;;;;;;5030593;28;20507;-73
2023/05/23 03:21:37;;;;;;;44.17;27.97;;;15.80;99.90;;;;;;5031110;28;20456;-73
2023/05/23 03:24:04;;;;;;;40.07;25.70;;;15.80;99.90;;;;;;5031080;28;20480;-73
2023/05/23 03:26:31;;;;;;;40.50;25.33;;;15.90;99.90;;;;;;5031112;28;20488;-73
2023/05/23 03:28:59;;;;;;;41.67;26.87;;;15.90;99.90;;;;;;5030385;28;20518;-74
2023/05/23 03:31:26;;;;;;;41.20;26.27;;;15.90;99.90;;;;;;5021456;28;20470;-73
2023/05/23 03:33:53;;;;;;;41.20;25.10;;;15.90;99.90;;;;;;5002534;28;20940;-73
2023/05/23 03:36:20;;;;;;;39.90;25.40;;;15.90;99.90;;;;;;5003496;28;20913;-73
2023/05/23 03:38:47;;;;;;;40.67;26.53;;;15.90;99.90;;;;;;5002371;28;20461;-72
2023/05/23 03:41:14;;;;;;;40.07;26.87;;;15.90;99.90;;;;;;4997092;28;20472;-72
2023/05/23 03:43:40;;;;;;;36.67;24.47;;;15.90;99.90;;;;;;5005620;28;20555;-72
2023/05/23 03:46:09;;;;;;;33.33;25.20;;;15.90;99.90;;;;;;4994774;28;20462;-73
2023/05/23 03:48:35;;;;;;;34.77;23.93;;;16.00;99.90;;;;;;5004807;28;20568;-72
2023/05/23 03:51:02;;;;;;;40.17;23.40;;;16.00;99.90;;;;;;4998566;28;20489;-72
2023/05/23 03:53:29;;;;;;;38.83;25.53;;;15.90;99.90;;;;;;5009951;28;20468;-72
2023/05/23 03:55:56;;;;;;;37.43;23.90;;;16.00;99.90;;;;;;5024488;28;20460;-72
2023/05/23 03:58:22;;;;;;;34.30;23.20;;;16.00;99.90;;;;;;5029784;28;20491;-72
2023/05/23 04:00:49;;;;;;;35.83;23.83;;;16.00;99.90;;;;;;5030307;28;20460;-73
2023/05/23 04:03:17;;;;;;;33.47;23.87;;;16.00;99.90;;;;;;5029969;28;20817;-73
2023/05/23 04:05:44;;;;;;;38.43;23.43;;;16.10;99.90;;;;;;5030307;28;20819;-72
2023/05/23 04:08:11;;;;;;;39.80;23.63;;;16.00;99.90;;;;;;5029709;28;20495;-72
2023/05/23 04:10:38;;;;;;;39.77;23.73;;;16.00;99.90;;;;;;5029830;28;20487;-72
2023/05/23 04:13:05;;;;;;;36.60;24.47;;;16.00;99.90;;;;;;5023496;28;20461;-72
2023/05/23 04:15:34;;;;;;;33.57;22.00;;;16.00;99.90;;;;;;5020658;28;20457;-73
2023/05/23 04:18:00;;;;;;;38.27;25.13;;;16.10;99.90;;;;;;5029478;28;20480;-73
2023/05/23 04:20:29;;;;;;;35.77;22.90;;;16.10;99.90;;;;;;5024112;28;20618;-73
2023/05/23 04:22:55;;;;;;;34.90;23.70;;;16.10;99.90;;;;;;5024219;28;20883;-73
2023/05/23 04:25:23;;;;;;;33.93;23.40;;;16.20;99.90;;;;;;5029192;28;20480;-74
2023/05/23 04:27:49;;;;;;;37.33;24.07;;;16.20;99.90;;;;;;5008080;28;20484;-74
2023/05/23 04:30:17;;;;;;;33.13;24.00;;;16.20;99.90;;;;;;5009805;28;20472;-75
2023/05/23 04:32:44;;;;;;;32.33;24.83;;;16.20;99.90;;;;;;5013582;28;20461;-76
2023/05/23 04:35:11;;;;;;;33.47;23.60;;;16.20;99.90;;;;;;5029994;28;20519;-73
2023/05/23 04:37:41;;;;;;;35.17;24.07;;;16.30;99.90;;;;;;5021917;28;20924;-73
2023/05/23 04:40:09;;;;;;;33.70;23.10;;;16.30;99.90;;;;;;5021859;28;20465;-73
2023/05/23 04:42:35;;;;;;;34.13;23.70;;;16.30;99.90;;;;;;5006607;28;20467;-73
2023/05/23 04:45:02;;;;;;;33.90;21.30;;;16.30;99.90;;;;;;5016875;28;20536;-75
2023/05/23 04:47:33;;;;;;;33.80;23.17;;;16.30;99.90;;;;;;5022343;28;20515;-76
2023/05/23 04:50:01;;;;;;;32.10;22.70;;;16.30;99.90;;;;;;5014174;28;20457;-74
2023/05/23 04:52:28;;;;;;;30.93;22.83;;;16.30;99.90;;;;;;5023903;28;20551;-76
2023/05/23 04:54:56;;;;;;;29.10;21.30;;;16.30;99.90;;;;;;5021133;28;20548;-76
2023/05/23 04:57:23;;;;;;;32.30;21.10;;;16.30;99.90;;;;;;5024520;28;21119;-75
2023/05/23 04:59:49;;;;;;;31.97;22.80;;;16.30;99.90;;;;;;5033818;28;20456;-77
2023/05/23 05:02:16;;;;;;;31.70;21.73;;;16.30;99.90;;;;;;5034421;28;20464;-74
2023/05/23 05:04:43;;;;;;;30.80;19.27;;;16.30;99.90;;;;;;5025684;28;20475;-76
2023/05/23 05:07:10;;;;;;;30.93;22.10;;;16.30;99.90;;;;;;5019074;28;20484;-75
2023/05/23 05:09:37;;;;;;;29.50;21.57;;;16.30;99.90;;;;;;5021869;28;20463;-73
2023/05/23 05:12:05;;;;;;;31.63;22.47;;;16.30;99.90;;;;;;5020294;28;20475;-73
2023/05/23 05:14:32;;;;;;;31.07;22.70;;;16.30;99.90;;;;;;5015926;28;20839;-73
2023/05/23 05:16:58;;;;;;;32.97;23.17;;;16.30;99.90;;;;;;5013660;28;20481;-75
2023/05/23 05:19:25;;;;;;;33.90;24.20;;;16.40;99.90;;;;;;5022944;28;20468;-75
2023/05/23 05:21:52;;;;;;;30.27;21.90;;;16.40;99.90;;;;;;5021138;28;20464;-74
2023/05/23 05:24:19;;;;;;;33.80;22.73;;;16.40;99.90;;;;;;5013627;28;20477;-74
2023/05/23 05:26:46;;;;;;;32.47;21.93;;;16.40;99.90;;;;;;5005528;28;21075;-74
2023/05/23 05:29:15;;;;;;;31.93;21.60;;;16.40;99.90;;;;;;5012939;28;20469;-74
2023/05/23 05:31:42;;;;;;;28.40;21.83;;;16.40;99.90;;;;;;5024285;28;20963;-74
2023/05/23 05:34:08;;;;;;;29.37;21.63;;;16.40;99.90;;;;;;5018466;28;20464;-74
2023/05/23 05:36:35;;;;;;;28.47;20.50;;;16.40;99.90;;;;;;5031699;28;20479;-74
2023/05/23 05:39:02;;;;;;;29.47;21.70;;;16.40;99.90;;;;;;5032599;28;20472;-74
2023/05/23 05:41:29;;;;;;;34.30;21.20;;;16.40;99.90;;;;;;5015662;28;20465;-74
2023/05/23 05:43:55;;;;;;;33.37;23.40;;;16.40;99.90;;;;;;5026158;28;20471;-74
2023/05/23 05:46:23;;;;;;;32.87;23.57;;;16.40;99.90;;;;;;5032729;28;20468;-74
2023/05/23 05:48:50;;;;;;;33.20;23.63;;;16.30;99.90;;;;;;5032804;28;20468;-74
2023/05/23 05:51:17;;;;;;;34.40;25.17;;;16.30;99.90;;;;;;5033029;28;20598;-74
2023/05/23 05:53:43;;;;;;;33.80;24.77;;;16.30;99.90;;;;;;5032690;28;20465;-74
2023/05/23 05:56:10;;;;;;;30.13;23.63;;;16.30;99.90;;;;;;5024124;28;20986;-74
2023/05/23 05:58:37;;;;;;;31.07;23.63;;;16.30;99.90;;;;;;5022017;28;20462;-74
2023/05/23 06:01:04;;;;;;;31.80;23.40;;;16.40;99.90;;;;;;5018559;28;20495;-74
2023/05/23 06:03:32;;;;;;;31.07;22.50;;;16.40;99.90;;;;;;5024724;28;20544;-74
2023/05/23 06:05:59;;;;;;;27.13;22.17;;;16.50;99.90;;;;;;5027894;28;20488;-74
2023/05/23 06:08:26;;;;;;;29.87;22.60;;;16.50;99.90;;;;;;5029037;28;21007;-73
2023/05/23 06:10:53;;;;;;;30.43;22.33;;;16.60;99.90;;;;;;5032644;28;20463;-73
2023/05/23 06:13:19;;;;;;;30.63;22.97;;;16.70;99.90;;;;;;5032747;28;20457;-74
2023/05/23 06:15:46;;;;;;;29.50;23.40;;;16.70;99.90;;;;;;5032497;28;20461;-74
2023/05/23 06:18:13;;;;;;;25.80;20.23;;;16.80;99.90;;;;;;5032395;28;20484;-74
2023/05/23 06:20:41;;;;;;;33.10;22.73;;;16.80;99.90;;;;;;5024383;28;20847;-73
2023/05/23 06:23:07;;;;;;;30.43;23.20;;;16.80;99.90;;;;;;5024355;28;20934;-72
2023/05/23 06:25:34;;;;;;;32.77;22.73;;;16.80;99.90;;;;;;5032261;28;20483;-74
2023/05/23 06:28:01;;;;;;;29.50;22.43;;;16.80;99.90;;;;;;5018933;28;20485;-74
2023/05/23 06:30:28;;;;;;;28.60;22.30;;;16.90;99.90;;;;;;5021075;28;20472;-73
2023/05/23 06:32:55;;;;;;;31.47;23.27;;;17.00;99.90;;;;;;5024213;28;20896;-74
2023/05/23 06:35:21;;;;;;;32.20;23.30;;;17.10;99.90;;;;;;5024545;28;20464;-72
2023/05/23 06:37:49;;;;;;;32.73;23.77;;;17.10;99.90;;;;;;5015325;28;20484;-74
2023/05/23 06:40:16;;;;;;;27.97;21.63;;;17.10;99.90;;;;;;5022167;28;20468;-74
2023/05/23 06:42:43;;;;;;;28.63;22.30;;;17.20;99.90;;;;;;5006768;28;20473;-74
2023/05/23 06:45:10;;;;;;;28.57;21.70;;;17.10;99.90;;;;;;5024535;28;20472;-74
2023/05/23 06:47:37;;;;;;;33.07;23.27;;;17.00;99.90;;;;;;5022171;28;20481;-74
2023/05/23 06:50:04;;;;;;;26.17;21.83;;;17.10;99.90;;;;;;5017589;28;20487;-74
2023/05/23 06:52:31;;;;;;;24.47;20.03;;;17.10;99.90;;;;;;5016022;28;20468;-74
2023/05/23 06:54:59;;;;;;;26.70;20.47;;;17.10;99.90;;;;;;5021668;28;20459;-73
2023/05/23 06:57:26;;;;;;;25.43;20.43;;;17.00;99.90;;;;;;5029309;28;21016;-74
2023/05/23 06:59:52;;;;;;;29.57;21.07;;;17.00;99.90;;;;;;5030837;28;20460;-74
2023/05/23 07:02:19;;;;;;;28.43;18.57;;;17.00;99.90;;;;;;5031672;28;20475;-73
2023/05/23 07:04:46;;;;;;;25.03;19.10;;;17.10;99.90;;;;;;5031270;28;20480;-73
2023/05/23 07:07:13;;;;;;;28.37;21.47;;;17.00;99.90;;;;;;5031274;28;20484;-73
2023/05/23 07:09:40;;;;;;;28.03;19.77;;;16.90;99.90;;;;;;5030689;28;20464;-73
2023/05/23 07:12:08;;;;;;;22.53;18.07;;;16.90;99.90;;;;;;5025925;28;20461;-73
2023/05/23 07:14:36;;;;;;;26.43;19.17;;;16.80;99.90;;;;;;5020782;28;20859;-73
2023/05/23 07:17:03;;;;;;;22.43;18.10;;;16.80;99.90;;;;;;5031840;28;20519;-74
2023/05/23 07:19:31;;;;;;;24.50;18.97;;;16.70;99.90;;;;;;5030977;28;20461;-73
2023/05/23 07:21:57;;;;;;;23.60;18.70;;;16.60;99.90;;;;;;5027243;28;20948;-74
2023/05/23 07:24:24;;;;;;;25.13;18.10;;;16.60;99.90;;;;;;5027961;28;20460;-75
2023/05/23 07:26:51;;;;;;;23.23;18.30;;;16.60;99.90;;;;;;5023182;28;20491;-76
2023/05/23 07:29:19;;;;;;;26.00;18.30;;;16.50;99.90;;;;;;5015990;28;20878;-75
2023/05/23 07:31:46;;;;;;;20.13;17.63;;;16.50;99.90;;;;;;5022669;28;20518;-74
2023/05/23 07:34:12;;;;;;;26.37;19.63;;;16.50;99.90;;;;;;5031837;28;20461;-73
2023/05/23 07:36:39;;;;;;;20.30;18.00;;;16.40;99.90;;;;;;5021522;28;20479;-73
2023/05/23 07:39:06;;;;;;;23.70;17.70;;;16.40;99.90;;;;;;5024423;28;20472;-72
2023/05/23 07:41:33;;;;;;;24.33;19.20;;;16.30;99.90;;;;;;5014710;28;20457;-74
2023/05/23 07:44:00;;;;;;;24.13;19.10;;;16.30;99.90;;;;;;5009731;28;20878;-73
2023/05/23 07:46:28;;;;;;;25.60;19.80;;;16.20;99.90;;;;;;5010880;28;20496;-74
2023/05/23 07:48:55;;;;;;;23.10;18.53;;;16.20;99.90;;;;;;5014258;28;20469;-73
2023/05/23 07:51:22;;;;;;;25.00;20.00;;;16.20;99.90;;;;;;5014666;28;20556;-73
2023/05/23 07:53:49;;;;;;;27.03;20.77;;;16.10;99.90;;;;;;5018476;28;20979;-71
2023/05/23 07:56:16;;;;;;;27.80;19.77;;;16.10;99.90;;;;;;5017332;28;20460;-71
2023/05/23 07:58:43;;;;;;;30.23;20.67;;;16.10;99.90;;;;;;5029516;28;20995;-70
2023/05/23 08:01:10;;;;;;;27.17;19.47;;;16.20;99.90;;;;;;5005649;28;20479;-71
2023/05/23 08:03:39;;;;;;;28.90;20.80;;;16.20;99.90;;;;;;5003070;28;20477;-70
2023/05/23 08:06:07;;;;;;;25.87;20.33;;;16.20;99.90;;;;;;5010269;28;20869;-71
2023/05/23 08:08:35;;;;;;;27.73;23.07;;;16.20;99.90;;;;;;5009858;28;20477;-71
2023/05/23 08:11:02;;;;;;;24.07;18.73;;;16.20;99.90;;;;;;5014789;28;20468;-74
2023/05/23 08:13:30;;;;;;;24.97;18.93;;;16.10;99.90;;;;;;5022113;28;20467;-71
2023/05/23 08:15:57;;;;;;;25.70;19.03;;;16.20;99.90;;;;;;5006463;28;20481;-73
2023/05/23 08:18:24;;;;;;;24.53;20.27;;;16.20;99.90;;;;;;5022915;28;20488;-72
2023/05/23 08:20:54;;;;;;;24.17;20.40;;;16.20;99.90;;;;;;5020348;28;20457;-71
2023/05/23 08:23:21;;;;;;;25.27;20.47;;;16.20;99.90;;;;;;5030147;28;20461;-73
2023/05/23 08:25:48;;;;;;;23.10;17.53;;;16.30;99.90;;;;;;5029596;28;20480;-70
2023/05/23 08:28:15;;;;;;;20.83;17.37;;;16.30;99.90;;;;;;5027156;28;20512;-73
2023/05/23 08:30:42;;;;;;;22.73;17.70;;;16.30;99.90;;;;;;5021736;28;20464;-71
2023/05/23 08:33:09;;;;;;;19.10;16.50;;;16.30;99.90;;;;;;5024775;28;20489;-75
2023/05/23 08:35:35;;;;;;;21.70;17.23;;;16.20;99.90;;;;;;5009879;28;20465;-72
2023/05/23 08:38:06;;;;;;;25.17;17.13;;;16.00;99.90;;;;;;5009811;28;20838;-73
2023/05/23 08:40:35;;;;;;;23.20;16.70;;;16.00;99.90;;;;;;5017186;28;20457;-72
2023/05/23 08:43:02;;;;;;;20.00;17.03;;;15.90;99.90;;;;;;5017758;28;20469;-76
2023/05/23 08:45:29;;;;;;;20.73;15.67;;;15.80;99.90;;;;;;5012099;28;20489;-73
2023/05/23 08:47:57;;;;;;;21.80;15.13;;;15.80;99.90;;;;;;5029689;28;20534;-73
2023/05/23 08:50:28;;;;;;;21.80;15.87;;;15.80;99.90;;;;;;5022729;28;20461;-76
2023/05/23 08:52:57;;;;;;;18.60;15.67;;;15.80;99.90;;;;;;5018055;28;20833;-75
2023/05/23 08:55:27;;;;;;;19.40;16.60;;;15.80;99.90;;;;;;5017699;28;20457;-75
2023/05/23 08:57:54;;;;;;;20.80;15.47;;;15.80;99.90;;;;;;5026296;28;20481;-74
2023/05/23 09:00:22;;;;;;;20.57;15.10;;;15.90;99.90;;;;;;5018307;28;20532;-75
2023/05/23 09:02:48;;;;;;;17.77;13.53;;;16.00;99.90;;;;;;5010161;28;20488;-75
2023/05/23 09:05:15;;;;;;;17.87;13.70;;;16.00;99.90;;;;;;5024644;28;20480;-79
2023/05/23 09:07:45;;;;;;;19.00;15.30;;;16.10;99.90;;;;;;5024163;28;20857;-74
2023/05/23 09:10:13;;;;;;;19.00;14.73;;;16.10;99.90;;;;;;5015658;28;20468;-74
2023/05/23 09:12:42;;;;;;;16.20;13.33;;;16.20;99.90;;;;;;5021641;28;20488;-74
2023/05/23 09:15:10;;;;;;;17.60;14.00;;;16.20;99.90;;;;;;5017240;28;20531;-73
2023/05/23 09:17:38;;;;;;;18.40;13.93;;;16.20;99.90;;;;;;5017856;28;20487;-72
2023/05/23 09:20:11;;;;;;;18.20;12.60;;;16.30;99.90;;;;;;5013475;28;21261;-72
2023/05/23 09:22:38;;;;;;;17.57;14.20;;;16.40;99.90;;;;;;5029648;28;20499;-72
2023/05/23 09:25:05;;;;;;;15.23;12.83;;;16.40;99.90;;;;;;5025419;28;20971;-72
2023/05/23 09:27:32;;;;;;;21.23;13.33;;;16.40;99.90;;;;;;5009899;28;20850;-72
2023/05/23 09:30:06;;;;;;;14.90;12.93;;;16.40;99.90;;;;;;5008855;28;20469;-72
2023/05/23 09:32:32;;;;;;;16.47;13.67;;;16.40;99.90;;;;;;5013273;28;20461;-73
2023/05/23 09:35:02;;;;;;;12.33;11.03;;;16.40;99.90;;;;;;5016681;28;20464;-73
2023/05/23 09:37:31;;;;;;;13.03;11.40;;;16.40;99.90;;;;;;5025762;28;20521;-74
2023/05/23 09:39:59;;;;;;;14.27;10.73;;;16.40;99.90;;;;;;5020915;28;20465;-74
2023/05/23 09:42:31;;;;;;;16.13;11.40;;;16.40;99.90;;;;;;5028062;28;20468;-74
2023/05/23 09:45:00;;;;;;;14.50;11.23;;;16.50;99.90;;;;;;5021978;28;20493;-72
2023/05/23 09:47:27;;;;;;;12.60;10.13;;;16.60;99.90;;;;;;5028524;28;20484;-72
2023/05/23 09:49:54;;;;;;;11.90;9.20;;;16.60;99.90;;;;;;5031879;28;20828;-72
2023/05/23 09:52:20;;;;;;;13.00;9.73;;;16.70;99.90;;;;;;5033105;28;20460;-72
2023/05/23 09:54:47;;;;;;;10.33;8.80;;;16.70;99.90;;;;;;5015836;28;20461;-72
2023/05/23 09:57:15;;;;;;;11.77;9.27;;;17.00;99.90;;;;;;5024605;28;20484;-73
2023/05/23 09:59:45;;;;;;;10.67;9.57;;;17.10;99.90;;;;;;5015983;28;20505;-74
2023/05/23 10:02:18;;;;;;;12.17;9.50;;;17.40;99.90;;;;;;5028096;28;20487;-72
2023/05/23 10:04:45;;;;;;;11.03;9.00;;;17.60;99.90;;;;;;5012238;28;20465;-73
2023/05/23 10:07:17;;;;;;;9.73;8.73;;;17.60;99.90;;;;;;5009731;28;20497;-70
2023/05/23 10:09:50;;;;;;;10.30;8.40;;;17.70;99.90;;;;;;5009332;28;20476;-72
2023/05/23 10:12:40;;;;;;;8.43;7.00;;;17.70;99.90;;;;;;5011653;28;20610;-72
2023/05/23 10:15:09;;;;;;;8.73;7.83;;;17.60;99.90;;;;;;5004158;28;20472;-76
2023/05/23 10:17:48;;;;;;;8.20;7.40;;;17.60;99.90;;;;;;5011105;28;20485;-73
2023/05/23 10:20:16;;;;;;;8.97;7.27;;;17.40;99.90;;;;;;5010975;28;20469;-73
2023/05/23 10:22:43;;;;;;;7.80;6.70;;;17.30;99.90;;;;;;5011307;28;20465;-72
2023/05/23 10:25:10;;;;;;;7.93;7.10;;;17.30;99.90;;;;;;5010811;28;20520;-72
2023/05/23 10:27:38;;;;;;;8.20;7.40;;;17.40;99.90;;;;;;5011293;28;20487;-72
2023/05/23 10:30:06;;;;;;;8.87;7.30;;;17.50;99.90;;;;;;5010433;28;20916;-72
2023/05/23 10:32:34;;;;;;;7.10;6.40;;;17.70;99.90;;;;;;5010762;28;20520;-72
2023/05/23 10:35:10;;;;;;;7.90;6.97;;;17.90;99.90;;;;;;5010702;28;20465;-72
2023/05/23 10:37:44;;;;;;;8.60;7.70;;;18.20;99.90;;;;;;5011370;28;20619;-72
2023/05/23 10:40:20;;;;;;;7.60;6.80;;;18.40;99.90;;;;;;5009898;28;20454;-73
2023/05/23 10:42:54;;;;;;;7.37;6.57;;;18.70;99.90;;;;;;5010103;28;20461;-72
2023/05/23 10:45:22;;;;;;;7.93;6.60;;;18.80;99.90;;;;;;5011052;28;20847;-72
2023/05/23 10:47:51;;;;;;;8.80;7.10;;;18.80;99.90;;;;;;5010171;28;20488;-72
2023/05/23 10:50:32;;;;;;;6.37;5.77;;;18.90;99.90;;;;;;5010722;28;20543;-73
2023/05/23 10:53:01;;;;;;;6.97;6.30;;;19.00;99.90;;;;;;5010612;28;20457;-72
2023/05/23 10:55:32;;;;;;;6.93;5.93;;;19.00;99.90;;;;;;5025438;28;20495;-73
2023/05/23 10:58:12;;;;;;;7.70;7.00;;;19.10;99.90;;;;;;5019324;28;20487;-72
2023/05/23 11:00:39;;;;;;;7.37;6.63;;;19.00;99.90;;;;;;5027117;28;20460;-72
2023/05/23 11:03:07;;;;;;;7.00;6.40;;;18.90;99.90;;;;;;5026504;28;20506;-72
2023/05/23 11:05:42;;;;;;;7.27;6.57;;;18.80;99.90;;;;;;5010428;28;20457;-73
2023/05/23 11:08:10;;;;;;;7.03;6.33;;;18.80;99.90;;;;;;5017684;28;20520;-72
2023/05/23 11:10:54;;;;;;;6.30;5.53;;;18.80;99.90;;;;;;5009953;28;20465;-73
2023/05/23 11:13:21;;;;;;;6.40;5.73;;;18.80;99.90;;;;;;5016295;28;20464;-73
2023/05/23 11:15:48;;;;;;;7.30;6.60;;;18.90;99.90;;;;;;5029860;28;20887;-72
2023/05/23 11:18:23;;;;;;;8.30;7.40;;;18.80;99.90;;;;;;5029127;28;20488;-73
2023/05/23 11:20:52;;;;;;;7.93;7.13;;;18.80;99.90;;;;;;5029547;28;20870;-72
2023/05/23 11:23:20;;;;;;;7.90;6.27;;;18.80;99.90;;;;;;5016649;28;20465;-76
2023/05/23 11:25:49;;;;;;;7.77;6.73;;;18.90;99.90;;;;;;5009612;28;21317;-75
2023/05/23 11:28:17;;;;;;;7.63;6.83;;;18.90;99.90;;;;;;5009514;28;20829;-73
2023/05/23 11:30:44;;;;;;;7.00;6.30;;;18.90;99.90;;;;;;5010098;28;20500;-73
2023/05/23 11:33:12;;;;;;;8.00;7.20;;;18.90;99.90;;;;;;5013853;28;20468;-72
2023/05/23 11:35:40;;;;;;;7.53;6.70;;;18.90;99.90;;;;;;5030441;28;20838;-77
2023/05/23 11:38:09;;;;;;;7.57;6.80;;;18.90;99.90;;;;;;5010309;28;20982;-78
2023/05/23 11:40:37;;;;;;;7.23;6.53;;;19.00;99.90;;;;;;5029972;28;20986;-77
2023/05/23 11:43:05;;;;;;;8.33;6.53;;;18.90;99.90;;;;;;5023029;28;20470;-78
2023/05/23 11:45:33;;;;;;;8.07;7.27;;;19.00;99.90;;;;;;5029197;28;20480;-76
2023/05/23 11:48:05;;;;;;;7.60;6.90;;;19.20;99.90;;;;;;5029028;28;20480;-76
2023/05/23 11:50:33;;;;;;;9.27;8.33;;;19.40;99.90;;;;;;5027924;28;20496;-75
2023/05/23 11:53:00;;;;;;;12.87;8.27;;;19.50;99.90;;;;;;5029290;28;20467;-73
2023/05/23 11:55:28;;;;;;;9.17;7.63;;;19.60;99.90;;;;;;5029480;28;20464;-73
2023/05/23 11:57:57;;;;;;;9.40;7.73;;;19.50;99.90;;;;;;5033298;28;20480;-79
2023/05/23 12:00:24;;;;;;;8.73;7.70;;;19.50;99.90;;;;;;5038354;28;20551;-77
2023/05/23 12:02:51;;;;;;;9.17;8.27;;;19.50;99.90;;;;;;5015674;28;20461;-74
2023/05/23 12:05:18;;;;;;;7.37;6.63;;;19.80;99.90;;;;;;5010183;28;20457;-72
2023/05/23 12:07:45;;;;;;;8.07;6.67;;;20.10;99.90;;;;;;5026131;28;20480;-72
2023/05/23 12:10:12;;;;;;;8.27;7.40;;;20.50;99.90;;;;;;5030117;28;20488;-73
2023/05/23 12:12:42;;;;;;;6.73;6.03;;;20.90;99.90;;;;;;5030282;28;20487;-74
2023/05/23 12:15:10;;;;;;;7.90;7.10;;;21.30;99.90;;;;;;5002210;28;20543;-73
2023/05/23 12:17:37;;;;;;;8.63;6.80;;;21.40;99.90;;;;;;5010512;28;20477;-74
2023/05/23 12:20:05;;;;;;;7.63;6.80;;;21.30;99.90;;;;;;5010123;28;21135;-74
2023/05/23 12:22:32;;;;;;;7.33;6.63;;;20.90;99.90;;;;;;5025360;28;20463;-73
2023/05/23 12:24:59;;;;;;;7.70;6.90;;;20.60;99.90;;;;;;5029858;28;20478;-73
2023/05/23 12:27:30;;;;;;;8.30;6.93;;;20.70;99.90;;;;;;5023420;28;20489;-74
2023/05/23 12:30:08;;;;;;;7.57;6.97;;;20.90;99.90;;;;;;5007418;28;20469;-75
2023/05/23 12:32:35;;;;;;;6.37;5.83;;;21.40;99.90;;;;;;5024313;28;20517;-73
2023/05/23 12:35:03;;;;;;;7.40;6.70;;;22.00;99.90;;;;;;5028093;28;20504;-74